Terminal Aerodrome Forecast
Issued by NWS Twin Cities, MN

Home | Current Version | Previous Version | Graphics & Text | Print | Product List | Glossary On
Versions: 1 2 3 4 5 6 7 8 9 10 11 12 13 14 15 16 17 18
000
FTUS43 KMPX 210520
TAFEAU
TAF
KEAU 210520Z 2106/2206 23010KT 6SM BR SCT012 BKN018
     FM210800 27009KT 4SM BR BKN008
      TEMPO 2109/2113 1SM BR BKN003
     FM211400 23004KT P6SM SCT010
     FM211800 20007KT P6SM SCT150
     FM220000 22005KT P6SM SCT250=

USA.gov is the U.S. government's official web portal to all federal, state and local government web resources and services.